Terminal Aerodrome Forecast
Issued by NWS

Home | Current Version | Previous Version | Text Only | Print | Product List | Glossary On
Versions: 1 2 3 4 5 6 7 8 9 10 11 12 13 14 15 16 17 18 19 20 21 22 23 24 25 26
000
FTUS42 KGSP 221137
TAFHKY
TAF
KHKY 221137Z 2212/2312 19006KT P6SM OVC015
     FM221600 20008KT P6SM OVC025
     FM221800 21008KT P6SM BKN040
     FM222300 20006KT P6SM SCT080
     FM230400 19003KT 6SM BR BKN013
     FM230700 17003KT 4SM BR BKN004=

USA.gov is the U.S. government's official web portal to all federal, state and local government web resources and services.